Address 0x6638bf8a99111f1df8c95cf68a3e9997a1943658

Overview

Balance:
84.836882591499414596 CRO

CRO Value:
$5.36 (@ $0.06/CRO)
Txn Hash Method
Block
From
To
Value [Txn Fee]
0x3dc74e3731b1b189154a668596246f3a3902fba65343f6617db8d64634e64bf5Claim Eth Reward...48534932022-09-29 6:17:1869 days 20 hrs ago0x6638bf8a99111f1df8c95cf68a3e9997a1943658OUT Phenix Finance: Referral Program0 CRO0.199335986069 4,910.116167932
0x5dc5fdf161d5dcf845af88cf338d104b4d9edb0ca8a57742536ae44997fc1de0Transfer48534882022-09-29 6:16:4969 days 20 hrs ago0xaaba47d373ea5591f90266e7eb6a9fd48fd9682b IN 0x6638bf8a99111f1df8c95cf68a3e9997a194365815 CRO0.103112444466 4,910.116403187
0x21b97dd22f79353942b0f2990483afbcc671357139f09bce8c893d72e2608bacTransfer44394802022-09-02 1:52:3197 days 1 hr ago0x6638bf8a99111f1df8c95cf68a3e9997a1943658OUT0x2575c2a57421978120237dceb7bd9f7cfc36d52a181.468803214192776 CRO0.103513139104 4,929.197100191
0x9fec2246eb02457e3b35807f14fc35da703cb014655eb68e791f259e8bec5ab0Transfer44394672022-09-02 1:51:1897 days 1 hr ago0x6638bf8a99111f1df8c95cf68a3e9997a1943658OUTPhenix Finance: Old PHNX Token0 CRO0.346152908951 4,929.197706676
0x9c38c61de065823b69fedf5385ccbd22899e5580531f28d0d9bde65ba6ca9fcfTransfer44394472022-09-02 1:49:2497 days 1 hr ago0x6638bf8a99111f1df8c95cf68a3e9997a1943658OUTPhenix Finance: Old PHNX Token0 CRO0.429239545964 4,929.198630753
0x016531fd85d68def7591327c94ecb9d3bb205eef56ae0d7f8aa021d908933e50Safe Transfer Fr...44394212022-09-02 1:46:5797 days 1 hr ago0x6638bf8a99111f1df8c95cf68a3e9997a1943658OUT 0xcf185cb08c62ff969d258fba18f92dabb278a8a90 CRO0.452416746055 4,929.199808846
0x7e1fd1d42ac75097e2256c18c18c4480af8c8dfe9e9fe75a572a1906537e128bSafe Transfer Fr...44394192022-09-02 1:46:4597 days 1 hr ago0x6638bf8a99111f1df8c95cf68a3e9997a1943658OUT 0xcf185cb08c62ff969d258fba18f92dabb278a8a90 CRO0.417641249481 4,929.199904177
0x975b164b00c319778376ecbd0b2adb6b26c92840aa3b0195c0ee3786ead954a3Safe Transfer Fr...44394172022-09-02 1:46:3497 days 1 hr ago0x6638bf8a99111f1df8c95cf68a3e9997a1943658OUT 0xcf185cb08c62ff969d258fba18f92dabb278a8a90 CRO0.417641256922 4,929.199992004
0x449bbbedcd3f55b51beb1df81a9335ff9cb3d267b13079b50eb7e5c409413bf8Safe Transfer Fr...44394152022-09-02 1:46:2297 days 1 hr ago0x6638bf8a99111f1df8c95cf68a3e9997a1943658OUT 0xcf185cb08c62ff969d258fba18f92dabb278a8a90 CRO0.417641264846 4,929.200085522
0xfeb1ed5eaac0900193bd42bf40f07d740a636703d49245ce9eec849b54248220Safe Transfer Fr...44394132022-09-02 1:46:1197 days 1 hr ago0x6638bf8a99111f1df8c95cf68a3e9997a1943658OUT 0xcf185cb08c62ff969d258fba18f92dabb278a8a90 CRO0.483470741058 4,929.200177998
0xef39333521e81bd158a3391f5952bdec879ad2e654cb11d80b19aef633885156Safe Transfer Fr...44393912022-09-02 1:44:0797 days 1 hr ago0x6638bf8a99111f1df8c95cf68a3e9997a1943658OUT 0xcf185cb08c62ff969d258fba18f92dabb278a8a90 CRO0.483470838129 4,929.201167677
0xff1a7051ee233512ca358542fc20e0f1e8d4e98a313722fa1ca1dee86152320fSafe Transfer Fr...44393882022-09-02 1:43:5097 days 1 hr ago0x6638bf8a99111f1df8c95cf68a3e9997a1943658OUT 0xcf185cb08c62ff969d258fba18f92dabb278a8a90 CRO0.483470852116 4,929.201310281
0x54f7ad37867d5d8119cf00fe6aad5e73ea0ccb8600d60e2a12e5e06ee9a1e006Safe Transfer Fr...44393862022-09-02 1:43:3897 days 1 hr ago0x6638bf8a99111f1df8c95cf68a3e9997a1943658OUT 0xcf185cb08c62ff969d258fba18f92dabb278a8a90 CRO0.483470861408 4,929.201405018
0xaf482a11e029fd0d4474aaa3b1fc2d872ea9523cec6499f6d753b23573885c8dSafe Transfer Fr...44393842022-09-02 1:43:2697 days 1 hr ago0x6638bf8a99111f1df8c95cf68a3e9997a1943658OUT 0xcf185cb08c62ff969d258fba18f92dabb278a8a90 CRO0.483470870472 4,929.201497434
0x3e595f4350779456f0312119824c23f9592baee6842cac0546fd5116ddd24cd5Safe Transfer Fr...44393802022-09-02 1:43:0397 days 1 hr ago0x6638bf8a99111f1df8c95cf68a3e9997a1943658OUT 0xcf185cb08c62ff969d258fba18f92dabb278a8a90 CRO0.483470888411 4,929.201680324
0xcefa7f43d17ae9e36a9d49f763576440b042e2c6283aad4f9a480ec3b62db054Safe Transfer Fr...44393782022-09-02 1:42:5297 days 1 hr ago0x6638bf8a99111f1df8c95cf68a3e9997a1943658OUT 0xcf185cb08c62ff969d258fba18f92dabb278a8a90 CRO0.483470897384 4,929.201771814
0x0bce0a57ba72a8cac7d1d08ff23bd54636cb20dfecf99d0e3eaa820d19fe3c86Safe Transfer Fr...44393762022-09-02 1:42:4197 days 1 hr ago0x6638bf8a99111f1df8c95cf68a3e9997a1943658OUT 0xcf185cb08c62ff969d258fba18f92dabb278a8a90 CRO0.483470906614 4,929.201865914
0xfafd5ad59587f7619e55a92496c726d78107d744a6166fdbaef0d76347704360Safe Transfer Fr...44393752022-09-02 1:42:3597 days 1 hr ago0x6638bf8a99111f1df8c95cf68a3e9997a1943658OUT 0xcf185cb08c62ff969d258fba18f92dabb278a8a90 CRO0.483470911173 4,929.201912399
0x99cd0cb3560528e5efc9f9221b125f7455f5353f37df34b10fc6330e621db006Safe Transfer Fr...44393722022-09-02 1:42:1897 days 1 hr ago0x6638bf8a99111f1df8c95cf68a3e9997a1943658OUT 0xcf185cb08c62ff969d258fba18f92dabb278a8a90 CRO0.483470924691 4,929.20205022
0xb93a7359b3b2d8a8a616405be7ea881b15d12c6e7e6134fb323a44666f45ceb5Safe Transfer Fr...44393702022-09-02 1:42:0797 days 1 hr ago0x6638bf8a99111f1df8c95cf68a3e9997a1943658OUT 0xcf185cb08c62ff969d258fba18f92dabb278a8a90 CRO0.48347093401 4,929.20214523
0x27ba8f69200ed8e5211daf709110f8070c683cd3a85268645bd3813229d6ff6aSafe Transfer Fr...44393682022-09-02 1:41:5697 days 1 hr ago0x6638bf8a99111f1df8c95cf68a3e9997a1943658OUT 0xcf185cb08c62ff969d258fba18f92dabb278a8a90 CRO0.483470943023 4,929.202237116
0xb1f355bacd802d3997339291be760b2d7da4e2c16947657261c25806c2a5bcbbSafe Transfer Fr...44393662022-09-02 1:41:4497 days 1 hr ago0x6638bf8a99111f1df8c95cf68a3e9997a1943658OUT 0xcf185cb08c62ff969d258fba18f92dabb278a8a90 CRO0.483470952162 4,929.202330293
0xe8edb1e051e2cc3f27221bc109065537f5a5a030f9053ebe3e13c551f92590b7Safe Transfer Fr...44393642022-09-02 1:41:3397 days 1 hr ago0x6638bf8a99111f1df8c95cf68a3e9997a1943658OUT 0xcf185cb08c62ff969d258fba18f92dabb278a8a90 CRO0.483470961466 4,929.202425158
0x23e03e3998b96e56598e914c5097472986540317fed00fe09a3c528a5d3b7634Safe Transfer Fr...44393612022-09-02 1:41:1697 days 1 hr ago0x6638bf8a99111f1df8c95cf68a3e9997a1943658OUT 0xcf185cb08c62ff969d258fba18f92dabb278a8a90 CRO0.48347097529 4,929.202566097
0x83e7ad95eceae368ec167e31d1599d32c502b5f1bd183903358ded0aed6623b9Safe Transfer Fr...44393592022-09-02 1:41:0497 days 1 hr ago0x6638bf8a99111f1df8c95cf68a3e9997a1943658OUT 0xcf185cb08c62ff969d258fba18f92dabb278a8a90 CRO0.483470984524 4,929.202660237
[ Download CSV Export 
Latest 6 internal transactions
Parent Txn Hash Block From To Value
0x3dc74e3731b1b189154a668596246f3a3902fba65343f6617db8d64634e64bf548534932022-09-29 6:17:1869 days 20 hrs ago Phenix Finance: Referral Program0x6638bf8a99111f1df8c95cf68a3e9997a194365870 CRO
0xbd2314de269a9f1f46e951c0734291de6ec601192d65bdfa7497d380c80b3e4441909622022-08-16 18:54:21113 days 8 hrs ago Phenix Finance: Referral Program0x6638bf8a99111f1df8c95cf68a3e9997a1943658495 CRO
0xc1c70f533a22758ebe971650df283e221b2c2a88a52b303c09e18743335d288b41908872022-08-16 18:47:17113 days 8 hrs ago Phenix Finance: Referral Program0x6638bf8a99111f1df8c95cf68a3e9997a19436582,250 CRO
0xf6eed3979b2f07afcb10d295929cf4a4b7ebdd6f9583123355eeacaa6b96b89d41700222022-08-15 9:54:01114 days 17 hrs ago Phenix Finance: Referral Program0x6638bf8a99111f1df8c95cf68a3e9997a19436582,285 CRO
0x00da5164166a83438e2a1decb6f2c39a9a028a086f1dcf5ab3575f09aef0591e41212272022-08-12 5:04:40117 days 22 hrs ago Phenix Finance: Referral Program0x6638bf8a99111f1df8c95cf68a3e9997a19436582,511 CRO
0xcee25b01a7a0add6e4ec515f4eaea4fe829db91f52492287c9caef9ec73dbee723059862022-04-12 6:18:31239 days 20 hrs ago 0xf1bdffdd8d06696875b91cd834b2d0b41ccdb9760x6638bf8a99111f1df8c95cf68a3e9997a19436584.64562580328983097 CRO
[ Download CSV Export 
Loading

Contract Name:
0

Compiler Version
0

Optimization Enabled:
0

Other Settings:
-NA-
Block Transaction Gas Used Reward
Age Block Fee Address BC Fee Address Voting Power Jailed Incoming
Block Uncle Number Difficulty Gas Used Reward
Loading
Make sure to use the "Vote Down" button for any spammy posts, and the "Vote Up" for interesting conversations.